sensor_id;sensor_type;location;lat;lon;timestamp;temperature;humidity
26212;DHT22;13951;49.516;6.094;2022-12-29T00:02:23;9.70;99.90
26212;DHT22;13951;49.516;6.094;2022-12-29T00:04:56;9.70;99.90
26212;DHT22;13951;49.516;6.094;2022-12-29T00:07:29;9.70;99.90
26212;DHT22;13951;49.516;6.094;2022-12-29T00:10:02;9.70;99.90
26212;DHT22;13951;49.516;6.094;2022-12-29T00:12:35;9.70;99.90
26212;DHT22;13951;49.516;6.094;2022-12-29T00:15:43;9.70;99.90
26212;DHT22;13951;49.516;6.094;2022-12-29T00:18:16;9.70;99.90
26212;DHT22;13951;49.516;6.094;2022-12-29T00:20:49;9.70;99.90
26212;DHT22;13951;49.516;6.094;2022-12-29T00:23:40;9.80;99.90
26212;DHT22;13951;49.516;6.094;2022-12-29T00:26:32;9.80;99.90
26212;DHT22;13951;49.516;6.094;2022-12-29T00:29:24;9.80;99.90
26212;DHT22;13951;49.516;6.094;2022-12-29T00:32:15;9.70;99.90
26212;DHT22;13951;49.516;6.094;2022-12-29T00:35:09;9.70;99.90
26212;DHT22;13951;49.516;6.094;2022-12-29T00:37:46;9.80;99.90
26212;DHT22;13951;49.516;6.094;2022-12-29T00:40:40;9.80;99.90
26212;DHT22;13951;49.516;6.094;2022-12-29T00:43:31;9.80;99.90
26212;DHT22;13951;49.516;6.094;2022-12-29T00:46:23;9.80;99.90
26212;DHT22;13951;49.516;6.094;2022-12-29T00:48:56;9.90;99.90
26212;DHT22;13951;49.516;6.094;2022-12-29T00:51:50;9.90;99.90
26212;DHT22;13951;49.516;6.094;2022-12-29T00:54:23;9.90;99.90
26212;DHT22;13951;49.516;6.094;2022-12-29T00:56:56;9.80;99.90
26212;DHT22;13951;49.516;6.094;2022-12-29T00:59:28;9.80;99.90
26212;DHT22;13951;49.516;6.094;2022-12-29T01:02:02;9.80;99.90
26212;DHT22;13951;49.516;6.094;2022-12-29T01:04:35;9.80;99.90
26212;DHT22;13951;49.516;6.094;2022-12-29T01:07:08;9.80;99.90
26212;DHT22;13951;49.516;6.094;2022-12-29T01:09:42;9.80;99.90
26212;DHT22;13951;49.516;6.094;2022-12-29T01:12:34;9.80;99.90
26212;DHT22;13951;49.516;6.094;2022-12-29T01:15:15;9.80;99.90
26212;DHT22;13951;49.516;6.094;2022-12-29T01:17:48;9.80;99.90
26212;DHT22;13951;49.516;6.094;2022-12-29T01:20:20;9.80;99.90
26212;DHT22;13951;49.516;6.094;2022-12-29T01:22:53;9.80;99.90
26212;DHT22;13951;49.516;6.094;2022-12-29T01:25:26;9.70;99.90
26212;DHT22;13951;49.516;6.094;2022-12-29T01:27:59;9.70;99.90
26212;DHT22;13951;49.516;6.094;2022-12-29T01:30:32;9.70;99.90
26212;DHT22;13951;49.516;6.094;2022-12-29T01:33:05;9.70;99.90
26212;DHT22;13951;49.516;6.094;2022-12-29T01:35:39;9.70;99.90
26212;DHT22;13951;49.516;6.094;2022-12-29T01:38:12;9.70;99.90
26212;DHT22;13951;49.516;6.094;2022-12-29T01:40:46;9.70;99.90
26212;DHT22;13951;49.516;6.094;2022-12-29T01:43:19;9.70;99.90
26212;DHT22;13951;49.516;6.094;2022-12-29T01:45:53;9.70;99.90
26212;DHT22;13951;49.516;6.094;2022-12-29T01:48:26;9.70;99.90
26212;DHT22;13951;49.516;6.094;2022-12-29T01:50:59;9.70;99.90
26212;DHT22;13951;49.516;6.094;2022-12-29T01:53:34;9.70;99.90
26212;DHT22;13951;49.516;6.094;2022-12-29T01:56:10;9.60;99.90
26212;DHT22;13951;49.516;6.094;2022-12-29T01:58:47;9.60;99.90
26212;DHT22;13951;49.516;6.094;2022-12-29T02:01:21;9.60;99.90
26212;DHT22;13951;49.516;6.094;2022-12-29T02:03:54;9.70;99.90
26212;DHT22;13951;49.516;6.094;2022-12-29T02:06:34;9.70;99.90
26212;DHT22;13951;49.516;6.094;2022-12-29T02:09:09;9.70;99.90
26212;DHT22;13951;49.516;6.094;2022-12-29T02:11:42;9.70;99.90
26212;DHT22;13951;49.516;6.094;2022-12-29T02:14:15;9.70;99.90
26212;DHT22;13951;49.516;6.094;2022-12-29T02:29:11;9.80;99.90
26212;DHT22;13951;49.516;6.094;2022-12-29T02:34:47;9.80;99.90
26212;DHT22;13951;49.516;6.094;2022-12-29T02:40:39;9.90;99.90
26212;DHT22;13951;49.516;6.094;2022-12-29T02:43:32;9.90;99.90
26212;DHT22;13951;49.516;6.094;2022-12-29T02:46:28;9.90;99.90
26212;DHT22;13951;49.516;6.094;2022-12-29T02:51:52;10.00;99.90
26212;DHT22;13951;49.516;6.094;2022-12-29T02:54:25;10.00;99.90
26212;DHT22;13951;49.516;6.094;2022-12-29T03:05:51;10.20;99.90
26212;DHT22;13951;49.516;6.094;2022-12-29T03:08:48;10.20;99.90
26212;DHT22;13951;49.516;6.094;2022-12-29T03:11:27;10.20;99.90
26212;DHT22;13951;49.516;6.094;2022-12-29T03:14:31;10.20;99.90
26212;DHT22;13951;49.516;6.094;2022-12-29T03:17:32;10.20;99.90
26212;DHT22;13951;49.516;6.094;2022-12-29T03:20:09;10.20;99.90
26212;DHT22;13951;49.516;6.094;2022-12-29T03:22:47;10.20;99.90
26212;DHT22;13951;49.516;6.094;2022-12-29T03:25:30;10.20;99.90
26212;DHT22;13951;49.516;6.094;2022-12-29T03:28:12;10.30;99.90
26212;DHT22;13951;49.516;6.094;2022-12-29T03:30:49;10.30;99.90
26212;DHT22;13951;49.516;6.094;2022-12-29T03:33:27;10.30;99.90
26212;DHT22;13951;49.516;6.094;2022-12-29T03:36:06;10.30;99.90
26212;DHT22;13951;49.516;6.094;2022-12-29T03:38:45;10.30;99.90
26212;DHT22;13951;49.516;6.094;2022-12-29T03:41:24;10.30;99.90
26212;DHT22;13951;49.516;6.094;2022-12-29T03:43:58;10.30;99.90
26212;DHT22;13951;49.516;6.094;2022-12-29T03:46:31;10.30;99.90
26212;DHT22;13951;49.516;6.094;2022-12-29T03:49:05;10.30;99.90
26212;DHT22;13951;49.516;6.094;2022-12-29T03:51:38;10.30;99.90
26212;DHT22;13951;49.516;6.094;2022-12-29T03:54:11;10.30;99.90
26212;DHT22;13951;49.516;6.094;2022-12-29T03:56:43;10.20;99.90
26212;DHT22;13951;49.516;6.094;2022-12-29T03:59:19;10.20;99.90
26212;DHT22;13951;49.516;6.094;2022-12-29T04:01:52;10.20;99.90
26212;DHT22;13951;49.516;6.094;2022-12-29T04:04:25;10.20;99.90
26212;DHT22;13951;49.516;6.094;2022-12-29T04:06:58;10.20;99.90
26212;DHT22;13951;49.516;6.094;2022-12-29T04:09:31;10.20;99.90
26212;DHT22;13951;49.516;6.094;2022-12-29T04:12:05;10.20;99.90
26212;DHT22;13951;49.516;6.094;2022-12-29T04:14:40;10.20;99.90
26212;DHT22;13951;49.516;6.094;2022-12-29T04:17:13;10.30;99.90
26212;DHT22;13951;49.516;6.094;2022-12-29T04:19:47;10.30;99.90
26212;DHT22;13951;49.516;6.094;2022-12-29T04:22:19;10.30;99.90
26212;DHT22;13951;49.516;6.094;2022-12-29T04:24:52;10.30;99.90
26212;DHT22;13951;49.516;6.094;2022-12-29T04:27:26;10.30;99.90
26212;DHT22;13951;49.516;6.094;2022-12-29T04:30:17;10.30;99.90
26212;DHT22;13951;49.516;6.094;2022-12-29T04:33:01;10.30;99.90
26212;DHT22;13951;49.516;6.094;2022-12-29T04:35:34;10.30;99.90
26212;DHT22;13951;49.516;6.094;2022-12-29T04:38:07;10.30;99.90
26212;DHT22;13951;49.516;6.094;2022-12-29T04:40:41;10.40;99.90
26212;DHT22;13951;49.516;6.094;2022-12-29T04:43:16;10.40;99.90
26212;DHT22;13951;49.516;6.094;2022-12-29T04:46:11;10.40;99.90
26212;DHT22;13951;49.516;6.094;2022-12-29T04:49:01;10.40;99.90
26212;DHT22;13951;49.516;6.094;2022-12-29T04:52:00;10.40;99.90
26212;DHT22;13951;49.516;6.094;2022-12-29T04:54:33;10.40;99.90
26212;DHT22;13951;49.516;6.094;2022-12-29T04:57:26;10.40;99.90
26212;DHT22;13951;49.516;6.094;2022-12-29T05:00:03;10.30;99.90
26212;DHT22;13951;49.516;6.094;2022-12-29T05:02:36;10.20;99.90
26212;DHT22;13951;49.516;6.094;2022-12-29T05:05:10;10.10;99.90
26212;DHT22;13951;49.516;6.094;2022-12-29T05:07:47;10.00;99.90
26212;DHT22;13951;49.516;6.094;2022-12-29T05:10:20;10.00;99.90
26212;DHT22;13951;49.516;6.094;2022-12-29T05:12:57;9.90;99.90
26212;DHT22;13951;49.516;6.094;2022-12-29T05:15:30;9.90;99.90
26212;DHT22;13951;49.516;6.094;2022-12-29T05:18:03;9.90;99.90
26212;DHT22;13951;49.516;6.094;2022-12-29T05:20:36;9.80;99.90
26212;DHT22;13951;49.516;6.094;2022-12-29T05:23:09;9.80;99.90
26212;DHT22;13951;49.516;6.094;2022-12-29T05:25:43;9.80;99.90
26212;DHT22;13951;49.516;6.094;2022-12-29T05:28:27;9.80;99.90
26212;DHT22;13951;49.516;6.094;2022-12-29T05:31:09;9.70;99.90
26212;DHT22;13951;49.516;6.094;2022-12-29T05:33:42;9.80;99.90
26212;DHT22;13951;49.516;6.094;2022-12-29T05:36:15;9.70;99.90
26212;DHT22;13951;49.516;6.094;2022-12-29T05:38:52;9.70;99.90
26212;DHT22;13951;49.516;6.094;2022-12-29T05:41:25;9.70;99.90
26212;DHT22;13951;49.516;6.094;2022-12-29T05:44:01;9.70;99.90
26212;DHT22;13951;49.516;6.094;2022-12-29T05:46:37;9.70;99.90
26212;DHT22;13951;49.516;6.094;2022-12-29T05:49:15;9.70;99.90
26212;DHT22;13951;49.516;6.094;2022-12-29T05:52:11;9.70;99.90
26212;DHT22;13951;49.516;6.094;2022-12-29T05:54:44;9.70;99.90
26212;DHT22;13951;49.516;6.094;2022-12-29T05:57:19;9.70;99.90
26212;DHT22;13951;49.516;6.094;2022-12-29T05:59:59;9.60;99.90
26212;DHT22;13951;49.516;6.094;2022-12-29T06:02:33;9.60;99.90
26212;DHT22;13951;49.516;6.094;2022-12-29T06:05:07;9.60;99.90
26212;DHT22;13951;49.516;6.094;2022-12-29T06:07:41;9.60;99.90
26212;DHT22;13951;49.516;6.094;2022-12-29T06:10:14;9.60;99.90
26212;DHT22;13951;49.516;6.094;2022-12-29T06:12:51;9.60;99.90
26212;DHT22;13951;49.516;6.094;2022-12-29T06:15:24;9.60;99.90
26212;DHT22;13951;49.516;6.094;2022-12-29T06:17:58;9.60;99.90
26212;DHT22;13951;49.516;6.094;2022-12-29T06:20:31;9.60;99.90
26212;DHT22;13951;49.516;6.094;2022-12-29T06:23:03;9.60;99.90
26212;DHT22;13951;49.516;6.094;2022-12-29T06:25:37;9.60;99.90
26212;DHT22;13951;49.516;6.094;2022-12-29T06:28:10;9.70;99.90
26212;DHT22;13951;49.516;6.094;2022-12-29T06:30:44;9.70;99.90
26212;DHT22;13951;49.516;6.094;2022-12-29T06:33:17;9.70;99.90
26212;DHT22;13951;49.516;6.094;2022-12-29T06:35:50;9.70;99.90
26212;DHT22;13951;49.516;6.094;2022-12-29T06:38:23;9.70;99.90
26212;DHT22;13951;49.516;6.094;2022-12-29T06:40:56;9.70;99.90
26212;DHT22;13951;49.516;6.094;2022-12-29T06:43:55;9.70;99.90
26212;DHT22;13951;49.516;6.094;2022-12-29T06:46:35;9.80;99.90
26212;DHT22;13951;49.516;6.094;2022-12-29T06:49:07;9.80;99.90
26212;DHT22;13951;49.516;6.094;2022-12-29T06:51:40;9.80;99.90
26212;DHT22;13951;49.516;6.094;2022-12-29T06:54:13;9.80;99.90
26212;DHT22;13951;49.516;6.094;2022-12-29T06:56:46;9.80;99.90
26212;DHT22;13951;49.516;6.094;2022-12-29T06:59:18;9.80;99.90
26212;DHT22;13951;49.516;6.094;2022-12-29T07:01:51;9.70;99.90
26212;DHT22;13951;49.516;6.094;2022-12-29T07:04:24;9.70;99.90
26212;DHT22;13951;49.516;6.094;2022-12-29T07:06:57;9.70;99.90
26212;DHT22;13951;49.516;6.094;2022-12-29T07:09:30;9.70;99.90
26212;DHT22;13951;49.516;6.094;2022-12-29T07:12:03;9.70;99.90
26212;DHT22;13951;49.516;6.094;2022-12-29T07:14:36;9.70;99.90
26212;DHT22;13951;49.516;6.094;2022-12-29T07:17:15;9.70;99.90
26212;DHT22;13951;49.516;6.094;2022-12-29T07:19:48;9.70;99.90
26212;DHT22;13951;49.516;6.094;2022-12-29T07:22:20;9.60;99.90
26212;DHT22;13951;49.516;6.094;2022-12-29T07:24:53;9.60;99.90
26212;DHT22;13951;49.516;6.094;2022-12-29T07:27:26;9.60;99.90
26212;DHT22;13951;49.516;6.094;2022-12-29T07:29:59;9.60;99.90
26212;DHT22;13951;49.516;6.094;2022-12-29T07:32:33;9.60;99.90
26212;DHT22;13951;49.516;6.094;2022-12-29T07:35:06;9.50;99.90
26212;DHT22;13951;49.516;6.094;2022-12-29T07:37:39;9.50;99.90
26212;DHT22;13951;49.516;6.094;2022-12-29T07:40:12;9.50;99.90
26212;DHT22;13951;49.516;6.094;2022-12-29T07:42:45;9.50;99.90
26212;DHT22;13951;49.516;6.094;2022-12-29T07:45:20;9.50;99.90
26212;DHT22;13951;49.516;6.094;2022-12-29T07:47:58;9.40;99.90
26212;DHT22;13951;49.516;6.094;2022-12-29T07:50:31;9.40;99.90
26212;DHT22;13951;49.516;6.094;2022-12-29T07:53:04;9.50;99.90
26212;DHT22;13951;49.516;6.094;2022-12-29T07:55:38;9.40;99.90
26212;DHT22;13951;49.516;6.094;2022-12-29T07:58:11;9.40;99.90
26212;DHT22;13951;49.516;6.094;2022-12-29T08:00:44;9.40;99.90
26212;DHT22;13951;49.516;6.094;2022-12-29T08:03:16;9.40;99.90
26212;DHT22;13951;49.516;6.094;2022-12-29T08:05:49;9.40;99.90
26212;DHT22;13951;49.516;6.094;2022-12-29T08:08:22;9.40;99.90
26212;DHT22;13951;49.516;6.094;2022-12-29T08:10:55;9.40;99.90
26212;DHT22;13951;49.516;6.094;2022-12-29T08:13:28;9.30;99.90
26212;DHT22;13951;49.516;6.094;2022-12-29T08:16:00;9.30;99.90
26212;DHT22;13951;49.516;6.094;2022-12-29T08:18:33;9.30;99.90
26212;DHT22;13951;49.516;6.094;2022-12-29T08:21:06;9.30;99.90
26212;DHT22;13951;49.516;6.094;2022-12-29T08:23:39;9.30;99.90
26212;DHT22;13951;49.516;6.094;2022-12-29T08:26:11;9.30;99.90
26212;DHT22;13951;49.516;6.094;2022-12-29T08:28:44;9.30;99.90
26212;DHT22;13951;49.516;6.094;2022-12-29T08:31:17;9.30;99.90
26212;DHT22;13951;49.516;6.094;2022-12-29T08:33:51;9.20;99.90
26212;DHT22;13951;49.516;6.094;2022-12-29T08:36:24;9.20;99.90
26212;DHT22;13951;49.516;6.094;2022-12-29T08:38:56;9.30;99.90
26212;DHT22;13951;49.516;6.094;2022-12-29T08:41:29;9.30;99.90
26212;DHT22;13951;49.516;6.094;2022-12-29T08:44:02;9.30;99.90
26212;DHT22;13951;49.516;6.094;2022-12-29T08:46:35;9.30;99.90
26212;DHT22;13951;49.516;6.094;2022-12-29T08:49:08;9.30;99.90
26212;DHT22;13951;49.516;6.094;2022-12-29T08:51:40;9.30;99.90
26212;DHT22;13951;49.516;6.094;2022-12-29T08:54:13;9.30;99.90
26212;DHT22;13951;49.516;6.094;2022-12-29T08:56:46;9.40;99.90
26212;DHT22;13951;49.516;6.094;2022-12-29T08:59:21;9.40;99.90
26212;DHT22;13951;49.516;6.094;2022-12-29T09:01:54;9.40;99.90
26212;DHT22;13951;49.516;6.094;2022-12-29T09:04:28;9.40;99.90
26212;DHT22;13951;49.516;6.094;2022-12-29T09:07:01;9.40;99.90
26212;DHT22;13951;49.516;6.094;2022-12-29T09:09:33;9.50;99.90
26212;DHT22;13951;49.516;6.094;2022-12-29T09:12:06;9.50;99.90
26212;DHT22;13951;49.516;6.094;2022-12-29T09:14:39;9.50;99.90
26212;DHT22;13951;49.516;6.094;2022-12-29T09:17:12;9.60;99.90
26212;DHT22;13951;49.516;6.094;2022-12-29T09:20:04;9.50;99.90
26212;DHT22;13951;49.516;6.094;2022-12-29T09:22:37;9.60;99.90
26212;DHT22;13951;49.516;6.094;2022-12-29T09:25:11;9.60;99.90
26212;DHT22;13951;49.516;6.094;2022-12-29T09:27:44;9.60;99.90
26212;DHT22;13951;49.516;6.094;2022-12-29T09:30:17;9.60;99.90
26212;DHT22;13951;49.516;6.094;2022-12-29T09:32:50;9.70;99.90
26212;DHT22;13951;49.516;6.094;2022-12-29T09:35:27;9.70;99.90
26212;DHT22;13951;49.516;6.094;2022-12-29T09:37:59;9.70;99.90
26212;DHT22;13951;49.516;6.094;2022-12-29T09:40:33;9.70;99.90
26212;DHT22;13951;49.516;6.094;2022-12-29T09:49:19;9.70;99.90
26212;DHT22;13951;49.516;6.094;2022-12-29T09:51:56;9.70;99.90
26212;DHT22;13951;49.516;6.094;2022-12-29T09:54:56;9.80;99.90
26212;DHT22;13951;49.516;6.094;2022-12-29T10:00:48;9.90;99.90
26212;DHT22;13951;49.516;6.094;2022-12-29T10:03:45;9.90;99.90
26212;DHT22;13951;49.516;6.094;2022-12-29T10:06:26;10.00;99.90
26212;DHT22;13951;49.516;6.094;2022-12-29T10:09:17;10.00;99.90
26212;DHT22;13951;49.516;6.094;2022-12-29T10:15:34;10.10;99.90
26212;DHT22;13951;49.516;6.094;2022-12-29T10:18:38;10.10;99.90
26212;DHT22;13951;49.516;6.094;2022-12-29T10:24:28;10.20;99.90
26212;DHT22;13951;49.516;6.094;2022-12-29T10:27:01;10.20;99.90
26212;DHT22;13951;49.516;6.094;2022-12-29T10:29:38;10.20;99.90
26212;DHT22;13951;49.516;6.094;2022-12-29T10:32:45;10.20;99.90
26212;DHT22;13951;49.516;6.094;2022-12-29T10:35:23;10.20;99.90
26212;DHT22;13951;49.516;6.094;2022-12-29T10:38:28;10.20;99.90
26212;DHT22;13951;49.516;6.094;2022-12-29T10:41:11;10.20;99.90
26212;DHT22;13951;49.516;6.094;2022-12-29T10:43:51;10.20;99.90
26212;DHT22;13951;49.516;6.094;2022-12-29T10:46:29;10.20;99.90
26212;DHT22;13951;49.516;6.094;2022-12-29T10:49:04;10.20;99.90
26212;DHT22;13951;49.516;6.094;2022-12-29T10:51:41;10.20;99.90
26212;DHT22;13951;49.516;6.094;2022-12-29T10:54:21;10.20;99.90
26212;DHT22;13951;49.516;6.094;2022-12-29T10:59:43;10.20;99.90
26212;DHT22;13951;49.516;6.094;2022-12-29T11:08:38;10.20;99.90
26212;DHT22;13951;49.516;6.094;2022-12-29T11:11:32;10.20;99.90
26212;DHT22;13951;49.516;6.094;2022-12-29T11:14:21;10.20;99.90
26212;DHT22;13951;49.516;6.094;2022-12-29T11:17:03;10.20;99.90
26212;DHT22;13951;49.516;6.094;2022-12-29T11:19:36;10.20;99.90
26212;DHT22;13951;49.516;6.094;2022-12-29T11:22:23;10.20;99.90
26212;DHT22;13951;49.516;6.094;2022-12-29T11:25:10;10.20;99.90
26212;DHT22;13951;49.516;6.094;2022-12-29T11:28:15;10.30;99.90
26212;DHT22;13951;49.516;6.094;2022-12-29T11:30:59;10.30;99.90
26212;DHT22;13951;49.516;6.094;2022-12-29T11:33:38;10.30;99.90
26212;DHT22;13951;49.516;6.094;2022-12-29T11:36:15;10.30;99.90
26212;DHT22;13951;49.516;6.094;2022-12-29T11:38:53;10.30;99.90
26212;DHT22;13951;49.516;6.094;2022-12-29T11:41:29;10.30;99.90
26212;DHT22;13951;49.516;6.094;2022-12-29T11:44:05;10.40;99.90
26212;DHT22;13951;49.516;6.094;2022-12-29T11:46:38;10.40;99.90
26212;DHT22;13951;49.516;6.094;2022-12-29T11:49:13;10.40;99.90
26212;DHT22;13951;49.516;6.094;2022-12-29T11:51:52;10.40;99.90
26212;DHT22;13951;49.516;6.094;2022-12-29T11:54:30;10.40;99.90
26212;DHT22;13951;49.516;6.094;2022-12-29T11:57:13;10.40;99.90
26212;DHT22;13951;49.516;6.094;2022-12-29T11:59:55;10.40;99.90
26212;DHT22;13951;49.516;6.094;2022-12-29T12:02:55;10.40;99.90
26212;DHT22;13951;49.516;6.094;2022-12-29T12:05:41;10.40;99.90
26212;DHT22;13951;49.516;6.094;2022-12-29T12:08:42;10.50;99.90
26212;DHT22;13951;49.516;6.094;2022-12-29T12:11:30;10.50;99.90
26212;DHT22;13951;49.516;6.094;2022-12-29T12:14:18;10.50;99.90
26212;DHT22;13951;49.516;6.094;2022-12-29T12:17:31;10.50;99.90
26212;DHT22;13951;49.516;6.094;2022-12-29T12:25:50;10.50;99.90
26212;DHT22;13951;49.516;6.094;2022-12-29T12:28:42;10.50;99.90
26212;DHT22;13951;49.516;6.094;2022-12-29T12:34:42;10.50;99.90
26212;DHT22;13951;49.516;6.094;2022-12-29T12:46:32;10.60;99.90
26212;DHT22;13951;49.516;6.094;2022-12-29T12:52:22;10.60;99.90
26212;DHT22;13951;49.516;6.094;2022-12-29T12:55:29;10.60;99.90
26212;DHT22;13951;49.516;6.094;2022-12-29T13:07:02;10.70;99.90
26212;DHT22;13951;49.516;6.094;2022-12-29T13:18:03;10.70;99.90
26212;DHT22;13951;49.516;6.094;2022-12-29T13:20:47;10.90;99.90
26212;DHT22;13951;49.516;6.094;2022-12-29T13:26:32;11.20;99.90
26212;DHT22;13951;49.516;6.094;2022-12-29T13:35:06;10.90;99.90
26212;DHT22;13951;49.516;6.094;2022-12-29T13:37:55;10.80;99.90
26212;DHT22;13951;49.516;6.094;2022-12-29T13:40:35;10.80;99.90
26212;DHT22;13951;49.516;6.094;2022-12-29T13:43:12;10.80;99.90
26212;DHT22;13951;49.516;6.094;2022-12-29T13:45:54;10.80;99.90
26212;DHT22;13951;49.516;6.094;2022-12-29T13:48:40;10.70;99.90
26212;DHT22;13951;49.516;6.094;2022-12-29T13:51:16;10.70;99.90
26212;DHT22;13951;49.516;6.094;2022-12-29T13:54:24;10.70;99.90
26212;DHT22;13951;49.516;6.094;2022-12-29T13:57:22;10.80;99.90
26212;DHT22;13951;49.516;6.094;2022-12-29T14:00:18;10.70;99.90
26212;DHT22;13951;49.516;6.094;2022-12-29T14:03:23;10.70;99.90
26212;DHT22;13951;49.516;6.094;2022-12-29T14:09:03;10.60;99.90
26212;DHT22;13951;49.516;6.094;2022-12-29T14:11:38;10.50;99.90
26212;DHT22;13951;49.516;6.094;2022-12-29T14:14:22;10.40;99.90
26212;DHT22;13951;49.516;6.094;2022-12-29T14:17:09;10.30;99.90
26212;DHT22;13951;49.516;6.094;2022-12-29T14:19:51;10.20;99.90
26212;DHT22;13951;49.516;6.094;2022-12-29T14:22:26;10.10;99.90
26212;DHT22;13951;49.516;6.094;2022-12-29T14:25:05;10.00;99.90
26212;DHT22;13951;49.516;6.094;2022-12-29T14:27:52;9.90;99.90
26212;DHT22;13951;49.516;6.094;2022-12-29T14:30:48;9.90;99.90
26212;DHT22;13951;49.516;6.094;2022-12-29T14:33:23;9.90;99.90
26212;DHT22;13951;49.516;6.094;2022-12-29T14:36:19;9.80;99.90
26212;DHT22;13951;49.516;6.094;2022-12-29T14:38:52;9.70;99.90
26212;DHT22;13951;49.516;6.094;2022-12-29T14:41:29;9.80;99.90
26212;DHT22;13951;49.516;6.094;2022-12-29T14:44:15;9.70;99.90
26212;DHT22;13951;49.516;6.094;2022-12-29T14:49:30;9.70;99.90
26212;DHT22;13951;49.516;6.094;2022-12-29T14:52:20;9.70;99.90
26212;DHT22;13951;49.516;6.094;2022-12-29T14:54:56;9.70;99.90
26212;DHT22;13951;49.516;6.094;2022-12-29T14:57:48;9.60;99.90
26212;DHT22;13951;49.516;6.094;2022-12-29T15:00:25;9.60;99.90
26212;DHT22;13951;49.516;6.094;2022-12-29T15:03:08;9.60;99.90
26212;DHT22;13951;49.516;6.094;2022-12-29T15:06:17;9.60;99.90
26212;DHT22;13951;49.516;6.094;2022-12-29T15:08:56;9.50;99.90
26212;DHT22;13951;49.516;6.094;2022-12-29T15:14:35;9.50;99.90
26212;DHT22;13951;49.516;6.094;2022-12-29T15:17:20;9.40;99.90
26212;DHT22;13951;49.516;6.094;2022-12-29T15:19:56;9.40;99.90
26212;DHT22;13951;49.516;6.094;2022-12-29T15:22:30;9.30;99.90
26212;DHT22;13951;49.516;6.094;2022-12-29T15:25:03;9.30;99.90
26212;DHT22;13951;49.516;6.094;2022-12-29T15:27:36;9.30;99.90
26212;DHT22;13951;49.516;6.094;2022-12-29T15:30:13;9.30;99.90
26212;DHT22;13951;49.516;6.094;2022-12-29T15:32:50;9.20;99.90
26212;DHT22;13951;49.516;6.094;2022-12-29T15:35:26;9.20;99.90
26212;DHT22;13951;49.516;6.094;2022-12-29T15:38:00;9.20;99.90
26212;DHT22;13951;49.516;6.094;2022-12-29T15:40:35;9.10;99.90
26212;DHT22;13951;49.516;6.094;2022-12-29T15:45:57;9.00;99.90
26212;DHT22;13951;49.516;6.094;2022-12-29T15:48:32;9.00;99.90
26212;DHT22;13951;49.516;6.094;2022-12-29T15:51:32;8.90;99.90
26212;DHT22;13951;49.516;6.094;2022-12-29T15:54:21;8.90;99.90
26212;DHT22;13951;49.516;6.094;2022-12-29T15:56:55;8.90;99.90
26212;DHT22;13951;49.516;6.094;2022-12-29T15:59:34;8.90;99.90
26212;DHT22;13951;49.516;6.094;2022-12-29T16:02:09;8.80;99.90
26212;DHT22;13951;49.516;6.094;2022-12-29T16:04:44;8.80;99.90
26212;DHT22;13951;49.516;6.094;2022-12-29T16:07:58;8.80;99.90
26212;DHT22;13951;49.516;6.094;2022-12-29T16:10:37;8.70;99.90
26212;DHT22;13951;49.516;6.094;2022-12-29T16:13:27;8.60;99.90
26212;DHT22;13951;49.516;6.094;2022-12-29T16:16:06;8.50;99.90
26212;DHT22;13951;49.516;6.094;2022-12-29T16:18:40;8.50;99.90
26212;DHT22;13951;49.516;6.094;2022-12-29T16:21:23;8.50;99.90
26212;DHT22;13951;49.516;6.094;2022-12-29T16:24:01;8.40;99.90
26212;DHT22;13951;49.516;6.094;2022-12-29T16:26:34;8.40;99.90
26212;DHT22;13951;49.516;6.094;2022-12-29T16:29:08;8.40;99.90
26212;DHT22;13951;49.516;6.094;2022-12-29T16:31:55;8.40;99.90
26212;DHT22;13951;49.516;6.094;2022-12-29T16:34:42;8.40;99.90
26212;DHT22;13951;49.516;6.094;2022-12-29T16:37:33;8.40;99.90
26212;DHT22;13951;49.516;6.094;2022-12-29T16:40:28;8.40;99.90
26212;DHT22;13951;49.516;6.094;2022-12-29T16:43:03;8.40;99.90
26212;DHT22;13951;49.516;6.094;2022-12-29T16:48:20;8.40;99.90
26212;DHT22;13951;49.516;6.094;2022-12-29T16:51:06;8.40;99.90
26212;DHT22;13951;49.516;6.094;2022-12-29T16:53:50;8.40;99.90
26212;DHT22;13951;49.516;6.094;2022-12-29T16:56:27;8.40;99.90
26212;DHT22;13951;49.516;6.094;2022-12-29T16:59:04;8.40;99.90
26212;DHT22;13951;49.516;6.094;2022-12-29T17:01:38;8.40;99.90
26212;DHT22;13951;49.516;6.094;2022-12-29T17:04:13;8.30;99.90
26212;DHT22;13951;49.516;6.094;2022-12-29T17:06:46;8.30;99.90
26212;DHT22;13951;49.516;6.094;2022-12-29T17:09:26;8.30;99.90
26212;DHT22;13951;49.516;6.094;2022-12-29T17:12:00;8.30;99.90
26212;DHT22;13951;49.516;6.094;2022-12-29T17:14:44;8.30;99.90
26212;DHT22;13951;49.516;6.094;2022-12-29T17:17:35;8.30;99.90
26212;DHT22;13951;49.516;6.094;2022-12-29T17:20:26;8.30;99.90
26212;DHT22;13951;49.516;6.094;2022-12-29T17:23:01;8.30;99.90
26212;DHT22;13951;49.516;6.094;2022-12-29T17:25:36;8.30;99.90
26212;DHT22;13951;49.516;6.094;2022-12-29T17:28:30;8.30;99.90
26212;DHT22;13951;49.516;6.094;2022-12-29T17:31:05;8.30;99.90
26212;DHT22;13951;49.516;6.094;2022-12-29T17:33:38;8.30;99.90
26212;DHT22;13951;49.516;6.094;2022-12-29T17:36:15;8.30;99.90
26212;DHT22;13951;49.516;6.094;2022-12-29T17:38:58;8.30;99.90
26212;DHT22;13951;49.516;6.094;2022-12-29T17:41:34;8.30;99.90
26212;DHT22;13951;49.516;6.094;2022-12-29T17:44:17;8.30;99.90
26212;DHT22;13951;49.516;6.094;2022-12-29T17:46:50;8.30;99.90
26212;DHT22;13951;49.516;6.094;2022-12-29T17:49:23;8.30;99.90
26212;DHT22;13951;49.516;6.094;2022-12-29T17:51:56;8.30;99.90
26212;DHT22;13951;49.516;6.094;2022-12-29T17:54:30;8.30;99.90
26212;DHT22;13951;49.516;6.094;2022-12-29T17:57:03;8.30;99.90
26212;DHT22;13951;49.516;6.094;2022-12-29T17:59:36;8.30;99.90
26212;DHT22;13951;49.516;6.094;2022-12-29T18:02:25;8.30;99.90
26212;DHT22;13951;49.516;6.094;2022-12-29T18:04:58;8.30;99.90
26212;DHT22;13951;49.516;6.094;2022-12-29T18:07:31;8.30;99.90
26212;DHT22;13951;49.516;6.094;2022-12-29T18:10:07;8.30;99.90
26212;DHT22;13951;49.516;6.094;2022-12-29T18:12:43;8.30;99.90
26212;DHT22;13951;49.516;6.094;2022-12-29T18:15:23;8.30;99.90
26212;DHT22;13951;49.516;6.094;2022-12-29T18:18:10;8.30;99.90
26212;DHT22;13951;49.516;6.094;2022-12-29T18:20:44;8.30;99.90
26212;DHT22;13951;49.516;6.094;2022-12-29T18:23:19;8.30;99.90
26212;DHT22;13951;49.516;6.094;2022-12-29T18:25:59;8.20;99.90
26212;DHT22;13951;49.516;6.094;2022-12-29T18:28:32;8.20;99.90
26212;DHT22;13951;49.516;6.094;2022-12-29T18:31:18;8.20;99.90
26212;DHT22;13951;49.516;6.094;2022-12-29T18:33:53;8.20;99.90
26212;DHT22;13951;49.516;6.094;2022-12-29T18:36:26;8.10;99.90
26212;DHT22;13951;49.516;6.094;2022-12-29T18:39:00;8.10;99.90
26212;DHT22;13951;49.516;6.094;2022-12-29T18:41:33;8.10;99.90
26212;DHT22;13951;49.516;6.094;2022-12-29T18:44:11;8.10;99.90
26212;DHT22;13951;49.516;6.094;2022-12-29T18:46:46;8.00;99.90
26212;DHT22;13951;49.516;6.094;2022-12-29T18:49:20;8.00;99.90
26212;DHT22;13951;49.516;6.094;2022-12-29T18:51:53;8.00;99.90
26212;DHT22;13951;49.516;6.094;2022-12-29T18:54:32;8.00;99.90